Edna Bay, Alaska
Current Conditions -  °F | °C
As of 11:04 PM on Wednesday 28 Jan 2015 (Local Time) from PAKW Reporting Station
Light Rain Light Rain  
Wind Chill: 39°   Ceiling: 2900
Heat Index: 43°   Visibility: 8mi
Dew Point: 41°   Wind: 7mph
Humidity: 93%   Direction: 40°NE
Pressure: 30.02"   Gusts: NA
Location:  55.8158°N, 132.958°W
Report Text: PAKW 290804Z AUTO 04006KT 8SM -RA BKN029 OVC035 06/05 A3002 RMK AO2 P0000 T00610050 TSNO
Loading
Personal Weather Stations






























Interactive Weather Map New forecast layout! Learn more

10-Day Weather Forecast

Advertisements
Track Severe Weather on mobile